Terminal Aerodrome Forecast
Issued by NWS Omaha/Valley, NE

Home | Current Version | Previous Version | Text Only | Print | Product List | Glossary On
Versions: 1 2 3 4 5 6 7 8 9 10 11 12 13 14 15 16 17
000
FTUS43 KOAX 242320
TAFLNK
TAF
KLNK 242320Z 2500/2524 04010KT P6SM SCT100 BKN150
     FM250200 04005KT P6SM SCT150
     FM250400 VRB03KT P6SM FEW100 SCT250
     FM251700 12008KT P6SM SCT250=

USA.gov is the U.S. government's official web portal to all federal, state and local government web resources and services.